Time;durP1;ratioP1;P1;durP2;ratioP2;P2;SDS_P1;SDS_P2;PMS_P1;PMS_P2;Temp;Humidity;BMP_temperature;BMP_pressure;BME280_temperature;BME280_humidity;BME280_pressure;Samples;Min_cycle;Max_cycle;Signal;HPM_P1;HPM_P2
2023/11/29 00:02:49;;;;;;;;;;;;;;;16.76;43.56;98471.28;10331322;28;1878;-71
2023/11/29 00:07:45;;;;;;;;;;;;;;;16.77;43.28;98451.97;10330592;28;917;-71
2023/11/29 00:12:41;;;;;;;;;;;;;;;16.74;43.57;98447.72;10331326;28;770;-71
2023/11/29 00:17:37;;;;;;;;;;;;;;;16.76;42.95;98451.09;10331217;28;890;-71
2023/11/29 00:22:33;;;;;;;;;;;;;;;16.80;42.49;98452.66;10330195;28;1960;-71
2023/11/29 00:27:28;;;;;;;;;;;;;;;16.77;42.86;98447.56;10331258;28;800;-71
2023/11/29 00:32:24;;;;;;;;;;;;;;;16.75;43.28;98444.13;10330303;28;941;-71
2023/11/29 00:37:20;;;;;;;;;;;;;;;16.77;43.48;98437.03;10330126;28;921;-71
2023/11/29 00:42:16;;;;;;;;;;;;;;;16.82;42.18;98439.38;10330101;28;1886;-71
2023/11/29 00:47:12;;;;;;;;;;;;;;;16.74;42.83;98437.19;10329636;28;889;-71
2023/11/29 00:52:08;;;;;;;;;;;;;;;16.75;43.22;98427.50;10329028;28;877;-71
2023/11/29 00:57:04;;;;;;;;;;;;;;;16.78;41.99;98415.03;10329994;28;859;-71
2023/11/29 01:02:00;;;;;;;;;;;;;;;16.73;42.91;98409.19;10328801;28;1909;-71
2023/11/29 01:06:55;;;;;;;;;;;;;;;16.71;43.27;98378.63;10329006;28;770;-71
2023/11/29 01:11:52;;;;;;;;;;;;;;;16.77;42.87;98386.19;10329414;28;992;-71
2023/11/29 01:16:48;;;;;;;;;;;;;;;16.71;42.59;98365.47;10328985;28;790;-71
2023/11/29 01:21:44;;;;;;;;;;;;;;;16.71;43.34;98368.94;10328898;28;1959;-71
2023/11/29 01:26:40;;;;;;;;;;;;;;;16.75;42.20;98373.09;10328770;28;834;-71
2023/11/29 01:31:35;;;;;;;;;;;;;;;16.70;42.79;98376.94;10327825;28;1024;-71
2023/11/29 01:36:31;;;;;;;;;;;;;;;16.69;43.09;98376.13;10327565;28;1270;-71
2023/11/29 01:41:27;;;;;;;;;;;;;;;16.69;43.14;98373.47;10327447;28;1969;-71
2023/11/29 01:46:23;;;;;;;;;;;;;;;16.69;42.56;98367.34;10327197;28;919;-71
2023/11/29 01:51:19;;;;;;;;;;;;;;;16.68;43.22;98353.34;10327810;28;775;-70
2023/11/29 01:56:16;;;;;;;;;;;;;;;16.67;43.06;98356.94;10327782;28;869;-70
2023/11/29 02:01:14;;;;;;;;;;;;;;;16.65;43.23;98345.66;10326849;28;1898;-71
2023/11/29 02:06:10;;;;;;;;;;;;;;;16.65;42.95;98346.50;10326299;28;889;-71
2023/11/29 02:11:05;;;;;;;;;;;;;;;16.63;43.12;98363.31;10326529;28;814;-71
2023/11/29 02:16:02;;;;;;;;;;;;;;;16.63;43.42;98345.72;10326459;28;889;-71
2023/11/29 02:20:57;;;;;;;;;;;;;;;16.63;42.88;98337.84;10325963;28;1972;-71
2023/11/29 02:25:54;;;;;;;;;;;;;;;16.59;43.20;98323.19;10326024;28;884;-71
2023/11/29 02:30:50;;;;;;;;;;;;;;;16.60;43.35;98329.31;10325832;28;867;-70
2023/11/29 02:35:46;;;;;;;;;;;;;;;16.57;42.44;98309.28;10308642;28;1253;-71
2023/11/29 02:40:42;;;;;;;;;;;;;;;16.56;43.14;98310.25;10325564;28;1973;-71
2023/11/29 02:45:38;;;;;;;;;;;;;;;16.55;43.22;98305.06;10326165;28;980;-71
2023/11/29 02:50:34;;;;;;;;;;;;;;;16.58;42.18;98307.50;10325613;28;889;-71
2023/11/29 02:55:29;;;;;;;;;;;;;;;16.57;42.57;98297.94;10325939;28;908;-71
2023/11/29 03:00:25;;;;;;;;;;;;;;;16.54;43.38;98284.97;10324572;28;1894;-71
2023/11/29 03:05:21;;;;;;;;;;;;;;;16.56;42.43;98288.34;10325757;28;826;-71
2023/11/29 03:10:17;;;;;;;;;;;;;;;16.54;43.00;98292.88;10325189;28;810;-71
2023/11/29 03:15:14;;;;;;;;;;;;;;;16.56;43.01;98285.72;10328495;28;1177;-71
2023/11/29 03:20:10;;;;;;;;;;;;;;;16.54;42.86;98272.66;10333064;28;1890;-70
2023/11/29 03:25:06;;;;;;;;;;;;;;;16.54;42.92;98271.81;10332865;28;969;-71
2023/11/29 03:30:02;;;;;;;;;;;;;;;16.52;43.12;98274.53;10332729;28;879;-71
2023/11/29 03:34:58;;;;;;;;;;;;;;;16.54;42.60;98266.56;10332803;28;1148;-71
2023/11/29 03:39:54;;;;;;;;;;;;;;;16.54;42.30;98256.03;10332868;28;1914;-71
2023/11/29 03:44:49;;;;;;;;;;;;;;;16.54;42.58;98262.13;10332716;28;941;-71
2023/11/29 03:49:45;;;;;;;;;;;;;;;16.55;42.76;98255.09;10331534;28;777;-71
2023/11/29 03:54:41;;;;;;;;;;;;;;;16.51;42.59;98246.56;10331697;28;866;-71
2023/11/29 03:59:37;;;;;;;;;;;;;;;16.52;42.94;98247.38;10332543;28;1890;-71
2023/11/29 04:04:33;;;;;;;;;;;;;;;16.50;42.56;98234.31;10332196;28;855;-71
2023/11/29 04:09:29;;;;;;;;;;;;;;;16.50;42.55;98236.13;10331171;28;984;-71
2023/11/29 04:14:25;;;;;;;;;;;;;;;16.48;42.97;98227.47;10331642;28;909;-71
2023/11/29 04:19:21;;;;;;;;;;;;;;;16.50;43.10;98220.34;10330989;28;1949;-71
2023/11/29 04:24:17;;;;;;;;;;;;;;;16.45;42.77;98210.09;10330811;28;818;-71
2023/11/29 04:29:12;;;;;;;;;;;;;;;16.48;43.19;98195.91;10330669;28;818;-71
2023/11/29 04:34:09;;;;;;;;;;;;;;;16.51;43.19;98183.44;10329816;28;1258;-71
2023/11/29 04:39:05;;;;;;;;;;;;;;;16.53;43.05;98192.06;10329492;28;1917;-71
2023/11/29 04:44:01;;;;;;;;;;;;;;;16.59;42.77;98172.44;10330529;28;893;-71
2023/11/29 04:48:57;;;;;;;;;;;;;;;16.59;43.04;98169.78;10329987;28;853;-71
2023/11/29 04:53:53;;;;;;;;;;;;;;;16.59;43.04;98154.00;10330169;28;846;-71
2023/11/29 04:58:49;;;;;;;;;;;;;;;16.60;42.99;98153.91;10329886;28;1898;-71
2023/11/29 05:03:45;;;;;;;;;;;;;;;16.61;42.68;98157.38;10329763;28;927;-71
2023/11/29 05:08:40;;;;;;;;;;;;;;;16.61;42.93;98150.34;10328306;28;889;-71
2023/11/29 05:13:36;;;;;;;;;;;;;;;16.64;42.66;98137.00;10329289;28;858;-71
2023/11/29 05:18:32;;;;;;;;;;;;;;;16.62;42.62;98122.25;10328793;28;797;-71
2023/11/29 05:23:29;;;;;;;;;;;;;;;16.71;42.90;98123.44;10329071;28;1943;-72
2023/11/29 05:28:25;;;;;;;;;;;;;;;16.76;42.52;98106.41;10328638;28;889;-73
2023/11/29 05:33:21;;;;;;;;;;;;;;;16.76;42.72;98132.72;10327134;28;1214;-71
2023/11/29 05:38:16;;;;;;;;;;;;;;;16.78;42.61;98106.34;10327917;28;813;-71
2023/11/29 05:43:12;;;;;;;;;;;;;;;16.78;42.72;98116.88;10327327;28;1909;-71
2023/11/29 05:48:08;;;;;;;;;;;;;;;16.84;42.69;98098.03;10327063;28;913;-71
2023/11/29 05:53:04;;;;;;;;;;;;;;;16.78;42.78;98107.19;10323604;28;1017;-71
2023/11/29 05:58:03;;;;;;;;;;;;;;;16.80;42.75;98097.41;10325749;28;1012;-71
2023/11/29 06:02:59;;;;;;;;;;;;;;;16.78;42.73;98088.75;10325584;28;1914;-71
2023/11/29 06:07:55;;;;;;;;;;;;;;;16.79;42.66;98081.72;10325499;28;905;-71
2023/11/29 06:12:51;;;;;;;;;;;;;;;16.81;42.36;98072.78;10325900;28;866;-71
2023/11/29 06:17:47;;;;;;;;;;;;;;;16.84;42.40;98080.47;10325699;28;838;-71
2023/11/29 06:22:43;;;;;;;;;;;;;;;16.83;41.88;98081.41;10325653;28;1961;-74
2023/11/29 06:27:39;;;;;;;;;;;;;;;16.83;42.44;98067.41;10325550;28;917;-72
2023/11/29 06:32:36;;;;;;;;;;;;;;;16.86;42.41;98075.94;10324654;28;1099;-71
2023/11/29 06:37:33;;;;;;;;;;;;;;;16.81;42.46;98064.88;10325582;28;888;-71
2023/11/29 06:42:29;;;;;;;;;;;;;;;16.85;42.58;98066.38;10324948;28;1910;-71
2023/11/29 06:47:25;;;;;;;;;;;;;;;16.91;42.50;98070.38;10325527;28;881;-71
2023/11/29 06:52:21;;;;;;;;;;;;;;;16.82;42.45;98078.88;10323647;28;928;-71
2023/11/29 06:57:17;;;;;;;;;;;;;;;16.82;42.59;98071.84;10324913;28;964;-71
2023/11/29 07:02:13;;;;;;;;;;;;;;;16.83;42.04;98072.69;10324943;28;1991;-71
2023/11/29 07:07:09;;;;;;;;;;;;;;;16.74;42.53;98068.84;10324954;28;865;-71
2023/11/29 07:12:05;;;;;;;;;;;;;;;16.71;42.00;98066.38;10324381;28;892;-71
2023/11/29 07:17:01;;;;;;;;;;;;;;;16.58;41.95;98068.13;10325046;28;878;-68
2023/11/29 07:21:57;;;;;;;;;;;;;;;16.50;41.94;98058.09;10323495;28;1890;-68
2023/11/29 07:26:53;;;;;;;;;;;;;;;16.37;41.88;98068.59;10325228;28;830;-69
2023/11/29 07:31:53;;;;;;;;;;;;;;;16.32;41.93;98067.19;10323772;28;1101;-68
2023/11/29 07:36:51;;;;;;;;;;;;;;;16.28;42.12;98066.53;10325655;28;1144;-69
2023/11/29 07:41:47;;;;;;;;;;;;;;;16.31;42.50;98070.75;10324501;28;1957;-68
2023/11/29 07:46:43;;;;;;;;;;;;;;;16.38;41.55;98075.53;10325038;28;853;-68
2023/11/29 07:51:39;;;;;;;;;;;;;;;16.31;42.15;98078.66;10317857;28;1470;-68
2023/11/29 07:56:35;;;;;;;;;;;;;;;16.36;42.14;98069.53;10283148;28;898;-69
2023/11/29 08:01:31;;;;;;;;;;;;;;;16.39;41.73;98073.75;10285832;28;1957;-69
2023/11/29 08:06:28;;;;;;;;;;;;;;;16.41;41.88;98072.69;10291059;28;876;-69
2023/11/29 08:11:24;;;;;;;;;;;;;;;16.46;41.90;98074.22;10290462;28;830;-68
2023/11/29 08:16:20;;;;;;;;;;;;;;;16.50;41.25;98078.31;10289854;28;818;-69
2023/11/29 08:21:16;;;;;;;;;;;;;;;16.48;41.94;98081.06;10289438;28;1894;-69
2023/11/29 08:26:12;;;;;;;;;;;;;;;16.54;41.70;98083.28;10289577;28;872;-72
2023/11/29 08:31:08;;;;;;;;;;;;;;;16.50;41.58;98073.88;10289210;28;905;-69
2023/11/29 08:36:04;;;;;;;;;;;;;;;16.52;42.21;98073.81;10289234;28;1466;-70
2023/11/29 08:41:00;;;;;;;;;;;;;;;16.59;41.69;98083.84;10288637;28;1976;-70
2023/11/29 08:45:56;;;;;;;;;;;;;;;16.64;41.96;98088.81;10288833;28;853;-71
2023/11/29 08:50:52;;;;;;;;;;;;;;;16.74;41.92;98089.88;10288581;28;796;-71
2023/11/29 08:55:48;;;;;;;;;;;;;;;16.73;41.72;98089.97;10288542;28;808;-71
2023/11/29 09:00:44;;;;;;;;;;;;;;;16.70;41.74;98087.56;10288704;28;1894;-71
2023/11/29 09:05:40;;;;;;;;;;;;;;;16.74;42.02;98091.66;10288554;28;962;-71
2023/11/29 09:10:38;;;;;;;;;;;;;;;16.77;42.23;98102.88;10287774;28;818;-71
2023/11/29 09:15:34;;;;;;;;;;;;;;;16.74;42.36;98096.91;10286914;28;874;-71
2023/11/29 09:20:30;;;;;;;;;;;;;;;16.61;42.42;98094.22;10288333;28;1874;-70
2023/11/29 09:25:26;;;;;;;;;;;;;;;16.29;42.90;98104.19;10287627;28;819;-71
2023/11/29 09:30:22;;;;;;;;;;;;;;;16.10;42.86;98099.25;10288086;28;781;-71
2023/11/29 09:35:17;;;;;;;;;;;;;;;16.16;41.84;98109.38;10287538;28;1249;-72
2023/11/29 09:40:15;;;;;;;;;;;;;;;16.41;41.09;98117.41;10287229;28;1975;-71
2023/11/29 09:45:17;;;;;;;;;;;;;;;16.55;40.78;98120.94;10286868;28;771;-71
2023/11/29 09:50:13;;;;;;;;;;;;;;;16.58;40.56;98126.00;10286674;28;863;-71
2023/11/29 09:55:09;;;;;;;;;;;;;;;16.59;41.11;98135.59;10286006;28;1762;-72
2023/11/29 10:00:08;;;;;;;;;;;;;;;16.64;40.99;98136.16;10286115;28;1894;-71
2023/11/29 10:05:04;;;;;;;;;;;;;;;16.66;40.87;98150.03;10286374;28;1068;-71
2023/11/29 10:10:00;;;;;;;;;;;;;;;16.68;41.38;98158.66;10297743;28;1212;-71
2023/11/29 10:14:56;;;;;;;;;;;;;;;16.73;41.29;98159.22;10326311;28;986;-71
2023/11/29 10:19:52;;;;;;;;;;;;;;;16.74;41.43;98153.03;10325582;28;1898;-70
2023/11/29 10:24:48;;;;;;;;;;;;;;;16.75;41.53;98149.44;10325153;28;902;-71
2023/11/29 10:29:44;;;;;;;;;;;;;;;16.75;41.56;98154.72;10325924;28;782;-70
2023/11/29 10:34:40;;;;;;;;;;;;;;;16.77;41.77;98168.66;10325178;28;1121;-71
2023/11/29 10:39:36;;;;;;;;;;;;;;;16.80;41.64;98173.72;10325870;28;1965;-71
2023/11/29 10:44:32;;;;;;;;;;;;;;;16.78;41.77;98165.06;10325493;28;898;-70
2023/11/29 10:49:29;;;;;;;;;;;;;;;16.79;42.03;98164.16;10325503;28;786;-70
2023/11/29 10:54:25;;;;;;;;;;;;;;;16.80;41.81;98171.09;10324848;28;865;-71
2023/11/29 10:59:21;;;;;;;;;;;;;;;16.79;41.90;98174.66;10325230;28;1961;-70
2023/11/29 11:04:18;;;;;;;;;;;;;;;16.81;41.82;98171.91;10325664;28;822;-71
2023/11/29 11:09:14;;;;;;;;;;;;;;;16.88;41.90;98178.50;10324654;28;790;-71
2023/11/29 11:14:10;;;;;;;;;;;;;;;16.88;42.26;98182.91;10324857;28;980;-72
2023/11/29 11:19:06;;;;;;;;;;;;;;;16.86;42.27;98177.72;10324369;28;1945;-71
2023/11/29 11:24:02;;;;;;;;;;;;;;;16.88;42.40;98177.66;10324905;28;822;-71
2023/11/29 11:28:58;;;;;;;;;;;;;;;16.86;42.13;98183.00;10324199;28;1590;-71
2023/11/29 11:33:54;;;;;;;;;;;;;;;16.86;42.44;98183.00;10324054;28;1415;-71
2023/11/29 11:38:49;;;;;;;;;;;;;;;16.91;42.41;98188.81;10330852;28;808;-71
2023/11/29 11:43:45;;;;;;;;;;;;;;;16.91;42.53;98185.34;10332340;28;1902;-71
2023/11/29 11:48:41;;;;;;;;;;;;;;;16.95;42.65;98194.72;10332114;28;755;-71
2023/11/29 11:53:37;;;;;;;;;;;;;;;16.93;42.98;98207.97;10331874;28;804;-71
2023/11/29 11:58:33;;;;;;;;;;;;;;;16.95;42.98;98207.88;10332437;28;873;-71
2023/11/29 12:03:29;;;;;;;;;;;;;;;16.98;43.16;98205.06;10331450;28;1960;-71
2023/11/29 12:08:25;;;;;;;;;;;;;;;16.96;43.29;98204.31;10331371;28;867;-71
2023/11/29 12:13:21;;;;;;;;;;;;;;;16.96;43.33;98212.22;10331850;28;841;-71
2023/11/29 12:18:17;;;;;;;;;;;;;;;17.02;43.24;98214.44;10330505;28;1003;-71
2023/11/29 12:23:13;;;;;;;;;;;;;;;16.99;43.40;98215.47;10330741;28;1957;-71
2023/11/29 12:28:09;;;;;;;;;;;;;;;16.99;43.58;98225.16;10330448;28;1139;-71
2023/11/29 12:33:05;;;;;;;;;;;;;;;16.98;43.54;98219.06;10330353;28;1133;-71
2023/11/29 12:38:03;;;;;;;;;;;;;;;16.98;43.43;98223.50;10330920;28;938;-71
2023/11/29 12:42:58;;;;;;;;;;;;;;;16.98;43.41;98234.03;10330041;28;1979;-71
2023/11/29 12:47:54;;;;;;;;;;;;;;;16.98;43.47;98236.66;10329055;28;846;-72
2023/11/29 12:52:50;;;;;;;;;;;;;;;16.99;43.38;98235.69;10330356;28;992;-71
2023/11/29 12:57:46;;;;;;;;;;;;;;;17.00;43.32;98237.38;10329535;28;762;-71
2023/11/29 13:02:42;;;;;;;;;;;;;;;16.98;43.58;98244.53;10329628;28;1894;-71
2023/11/29 13:07:38;;;;;;;;;;;;;;;16.95;43.67;98250.84;10329171;28;798;-72
2023/11/29 13:12:34;;;;;;;;;;;;;;;16.99;43.43;98251.50;10326285;28;1034;-71
2023/11/29 13:17:30;;;;;;;;;;;;;;;17.01;43.20;98260.13;10328470;28;762;-71
2023/11/29 13:22:25;;;;;;;;;;;;;;;17.05;43.29;98265.09;10328023;28;1949;-71
2023/11/29 13:27:21;;;;;;;;;;;;;;;17.00;43.35;98268.97;10328721;28;952;-71
2023/11/29 13:32:17;;;;;;;;;;;;;;;17.01;43.23;98265.41;10327423;28;885;-71
2023/11/29 13:37:13;;;;;;;;;;;;;;;17.03;43.48;98268.78;10328855;28;1156;-71
2023/11/29 13:42:09;;;;;;;;;;;;;;;17.03;43.54;98272.25;10327066;28;1914;-71
2023/11/29 13:47:05;;;;;;;;;;;;;;;17.02;43.46;98272.34;10327307;28;925;-71
2023/11/29 13:52:01;;;;;;;;;;;;;;;17.03;43.47;98269.63;10326893;28;786;-70
2023/11/29 13:56:57;;;;;;;;;;;;;;;17.06;43.56;98277.31;10326947;28;941;-70
2023/11/29 14:01:53;;;;;;;;;;;;;;;17.10;43.32;98280.59;10326137;28;1948;-71
2023/11/29 14:06:48;;;;;;;;;;;;;;;17.08;43.65;98278.06;10326300;28;863;-71
2023/11/29 14:11:44;;;;;;;;;;;;;;;17.09;43.43;98274.50;10325822;28;876;-71
2023/11/29 14:16:41;;;;;;;;;;;;;;;17.11;43.39;98278.81;10326764;28;976;-71
2023/11/29 14:21:37;;;;;;;;;;;;;;;17.05;43.58;98282.69;10325541;28;1881;-71
2023/11/29 14:26:33;;;;;;;;;;;;;;;17.05;43.69;98288.78;10325717;28;806;-71
2023/11/29 14:31:29;;;;;;;;;;;;;;;17.08;43.68;98280.72;10325384;28;925;-71
2023/11/29 14:36:25;;;;;;;;;;;;;;;17.04;43.63;98281.84;10325752;28;1274;-71
2023/11/29 14:41:21;;;;;;;;;;;;;;;17.10;43.58;98267.44;10325239;28;1906;-71
2023/11/29 14:46:17;;;;;;;;;;;;;;;17.08;43.65;98274.56;10324546;28;826;-71
2023/11/29 14:51:12;;;;;;;;;;;;;;;17.09;43.66;98271.03;10324514;28;857;-71
2023/11/29 14:56:08;;;;;;;;;;;;;;;17.06;43.68;98279.13;10325136;28;936;-71
2023/11/29 15:01:04;;;;;;;;;;;;;;;17.05;43.77;98301.94;10324879;28;1953;-71
2023/11/29 15:06:01;;;;;;;;;;;;;;;17.06;43.49;98302.81;10350141;28;1138;-71
2023/11/29 15:10:57;;;;;;;;;;;;;;;17.07;43.82;98299.22;10367776;28;993;-71
2023/11/29 15:15:53;;;;;;;;;;;;;;;17.05;43.95;98314.25;10374494;28;780;-71
2023/11/29 15:20:49;;;;;;;;;;;;;;;17.11;44.05;98311.25;10374192;28;1905;-71
2023/11/29 15:25:45;;;;;;;;;;;;;;;17.06;44.25;98310.72;10374686;28;842;-71
2023/11/29 15:30:40;;;;;;;;;;;;;;;17.07;44.03;98307.97;10374503;28;953;-71
2023/11/29 15:35:36;;;;;;;;;;;;;;;17.07;44.01;98299.22;10373607;28;1104;-71
2023/11/29 15:40:32;;;;;;;;;;;;;;;17.04;44.10;98305.53;10373497;28;1965;-71
2023/11/29 15:45:28;;;;;;;;;;;;;;;17.05;44.18;98304.56;10373933;28;825;-71
2023/11/29 15:50:26;;;;;;;;;;;;;;;17.00;44.16;98297.91;10373804;28;870;-71
2023/11/29 15:55:22;;;;;;;;;;;;;;;16.86;44.12;98297.00;10372891;28;915;-71
2023/11/29 16:00:18;;;;;;;;;;;;;;;16.84;44.25;98303.28;10373389;28;1957;-71
2023/11/29 16:05:14;;;;;;;;;;;;;;;16.79;44.40;98298.34;10373202;28;853;-72
2023/11/29 16:10:10;;;;;;;;;;;;;;;16.79;44.58;98297.47;10373057;28;935;-73
2023/11/29 16:15:06;;;;;;;;;;;;;;;16.85;44.34;98297.09;10372167;28;909;-70
2023/11/29 16:20:02;;;;;;;;;;;;;;;16.85;44.34;98300.56;10371983;28;1955;-71
2023/11/29 16:24:58;;;;;;;;;;;;;;;16.92;44.56;98302.81;10370498;28;948;-72
2023/11/29 16:29:53;;;;;;;;;;;;;;;16.93;44.39;98301.91;10371668;28;826;-71
2023/11/29 16:34:49;;;;;;;;;;;;;;;16.94;44.24;98296.50;10371009;28;1354;-71
2023/11/29 16:39:45;;;;;;;;;;;;;;;16.99;44.27;98294.44;10370908;28;1966;-71
2023/11/29 16:44:41;;;;;;;;;;;;;;;17.00;44.33;98300.53;10371030;28;880;-71
2023/11/29 16:49:37;;;;;;;;;;;;;;;17.04;44.24;98297.63;10370868;28;786;-72
2023/11/29 16:54:33;;;;;;;;;;;;;;;17.07;44.12;98297.44;10370870;28;871;-71
2023/11/29 16:59:29;;;;;;;;;;;;;;;17.07;44.17;98302.69;10370616;28;1894;-71
2023/11/29 17:04:26;;;;;;;;;;;;;;;17.11;44.24;98299.88;10370520;28;875;-71
2023/11/29 17:09:22;;;;;;;;;;;;;;;17.11;43.99;98300.72;10371486;28;794;-71
2023/11/29 17:14:18;;;;;;;;;;;;;;;17.08;44.16;98295.63;10370140;28;882;-71
2023/11/29 17:19:13;;;;;;;;;;;;;;;17.12;44.12;98302.41;10370536;28;868;-71
2023/11/29 17:24:09;;;;;;;;;;;;;;;17.11;44.22;98302.50;10370278;28;2048;-71
2023/11/29 17:29:05;;;;;;;;;;;;;;;17.11;44.07;98303.38;10368995;28;864;-71
2023/11/29 17:34:01;;;;;;;;;;;;;;;17.16;43.83;98305.69;10369073;28;1092;-71
2023/11/29 17:38:58;;;;;;;;;;;;;;;17.13;44.07;98317.25;10369790;28;904;-71
2023/11/29 17:43:54;;;;;;;;;;;;;;;17.15;44.05;98310.09;10368998;28;1914;-71
2023/11/29 17:48:50;;;;;;;;;;;;;;;17.14;43.93;98318.13;10368744;28;906;-71
2023/11/29 17:53:46;;;;;;;;;;;;;;;17.12;43.91;98322.63;10368633;28;881;-71
2023/11/29 17:58:42;;;;;;;;;;;;;;;17.17;43.84;98329.28;10369038;28;858;-71
2023/11/29 18:03:38;;;;;;;;;;;;;;;17.16;43.99;98327.63;10368089;28;1886;-71
2023/11/29 18:08:34;;;;;;;;;;;;;;;17.16;44.02;98332.00;10368804;28;908;-71
2023/11/29 18:13:30;;;;;;;;;;;;;;;17.17;43.83;98325.81;10367947;28;870;-71
2023/11/29 18:18:27;;;;;;;;;;;;;;;17.20;43.77;98328.25;10368262;28;906;-71
2023/11/29 18:23:22;;;;;;;;;;;;;;;17.18;43.75;98327.50;10367420;28;1889;-71
2023/11/29 18:28:18;;;;;;;;;;;;;;;17.18;43.93;98330.97;10367390;28;828;-71
2023/11/29 18:33:14;;;;;;;;;;;;;;;17.16;44.02;98329.38;10367157;28;1168;-71
2023/11/29 18:38:10;;;;;;;;;;;;;;;17.17;43.94;98334.56;10366469;28;1189;-71
2023/11/29 18:43:06;;;;;;;;;;;;;;;17.18;43.67;98328.34;10366752;28;1959;-71
2023/11/29 18:48:02;;;;;;;;;;;;;;;17.17;43.95;98334.56;10366048;28;884;-71
2023/11/29 18:52:58;;;;;;;;;;;;;;;17.22;43.82;98339.53;10366681;28;944;-71
2023/11/29 18:57:54;;;;;;;;;;;;;;;17.20;43.66;98328.25;10366748;28;843;-72
2023/11/29 19:02:50;;;;;;;;;;;;;;;17.18;43.71;98336.25;10367194;28;1960;-71
2023/11/29 19:07:45;;;;;;;;;;;;;;;17.19;43.71;98337.94;10366491;28;986;-71
2023/11/29 19:12:41;;;;;;;;;;;;;;;17.22;43.61;98347.44;10366257;28;798;-71
2023/11/29 19:17:37;;;;;;;;;;;;;;;17.20;43.75;98365.97;10366260;28;897;-71
2023/11/29 19:22:34;;;;;;;;;;;;;;;17.23;43.75;98360.50;10366492;28;1902;-71
2023/11/29 19:27:30;;;;;;;;;;;;;;;17.20;43.68;98362.50;10366802;28;865;-71
2023/11/29 19:32:26;;;;;;;;;;;;;;;17.23;43.72;98365.75;10365740;28;1188;-71
2023/11/29 19:37:21;;;;;;;;;;;;;;;17.23;43.56;98365.75;10366990;28;872;-71
2023/11/29 19:42:17;;;;;;;;;;;;;;;17.21;43.65;98364.16;10365635;28;1963;-71
2023/11/29 19:47:14;;;;;;;;;;;;;;;17.24;43.74;98370.09;10365655;28;881;-71
2023/11/29 19:52:10;;;;;;;;;;;;;;;17.25;43.82;98371.78;10366137;28;817;-71
2023/11/29 19:57:06;;;;;;;;;;;;;;;17.23;43.91;98370.19;10368502;28;770;-71
2023/11/29 20:02:02;;;;;;;;;;;;;;;17.26;43.73;98370.00;10373637;28;1870;-71
2023/11/29 20:06:58;;;;;;;;;;;;;;;17.28;43.83;98373.38;10372860;28;960;-71
2023/11/29 20:11:54;;;;;;;;;;;;;;;17.27;43.68;98371.69;10372657;28;859;-71
2023/11/29 20:16:49;;;;;;;;;;;;;;;17.26;43.61;98370.84;10372483;28;861;-71
2023/11/29 20:21:45;;;;;;;;;;;;;;;17.27;43.91;98374.34;10372167;28;1906;-71
2023/11/29 20:26:41;;;;;;;;;;;;;;;17.25;43.75;98371.78;10372069;28;778;-71
2023/11/29 20:31:37;;;;;;;;;;;;;;;17.27;43.79;98366.44;10372482;28;850;-71
2023/11/29 20:36:33;;;;;;;;;;;;;;;17.25;43.85;98377.06;10372578;28;1310;-68
2023/11/29 20:41:31;;;;;;;;;;;;;;;17.13;44.12;98366.44;10372183;28;1969;-71
2023/11/29 20:46:27;;;;;;;;;;;;;;;17.19;43.75;98369.53;10372436;28;882;-71
2023/11/29 20:51:23;;;;;;;;;;;;;;;17.18;43.83;98369.63;10370775;28;902;-71
2023/11/29 20:56:20;;;;;;;;;;;;;;;17.16;43.98;98367.13;10370913;28;959;-71
2023/11/29 21:01:16;;;;;;;;;;;;;;;17.15;43.94;98372.47;10371466;28;1902;-71
2023/11/29 21:06:12;;;;;;;;;;;;;;;17.15;43.82;98372.47;10371145;28;984;-71
2023/11/29 21:11:08;;;;;;;;;;;;;;;17.14;44.04;98373.41;10369568;28;846;-71
2023/11/29 21:16:04;;;;;;;;;;;;;;;17.14;43.87;98366.34;10370771;28;895;-71
2023/11/29 21:20:59;;;;;;;;;;;;;;;17.14;43.88;98368.16;10369793;28;1901;-71
2023/11/29 21:25:55;;;;;;;;;;;;;;;17.12;43.92;98362.97;10352945;28;829;-71
2023/11/29 21:30:51;;;;;;;;;;;;;;;17.15;43.92;98351.41;10369589;28;780;-71
2023/11/29 21:35:47;;;;;;;;;;;;;;;17.11;43.98;98349.88;10370051;28;1280;-71
2023/11/29 21:40:43;;;;;;;;;;;;;;;17.05;43.90;98351.13;10369745;28;1930;-71
2023/11/29 21:45:39;;;;;;;;;;;;;;;17.06;43.96;98347.56;10369001;28;797;-71
2023/11/29 21:50:35;;;;;;;;;;;;;;;17.03;44.25;98347.75;10368903;28;921;-71
2023/11/29 21:55:31;;;;;;;;;;;;;;;17.00;44.28;98342.66;10369129;28;774;-72
2023/11/29 22:00:27;;;;;;;;;;;;;;;16.97;44.06;98334.97;10368331;28;1901;-71
2023/11/29 22:05:23;;;;;;;;;;;;;;;16.93;44.30;98342.22;10368203;28;873;-71
2023/11/29 22:10:19;;;;;;;;;;;;;;;16.91;44.17;98343.25;10369019;28;815;-71
2023/11/29 22:15:15;;;;;;;;;;;;;;;16.92;44.13;98342.28;10368354;28;864;-71
2023/11/29 22:20:11;;;;;;;;;;;;;;;16.85;44.22;98353.22;10368065;28;1959;-72
2023/11/29 22:25:07;;;;;;;;;;;;;;;16.85;44.33;98355.84;10367573;28;896;-71
2023/11/29 22:30:03;;;;;;;;;;;;;;;16.83;44.19;98348.97;10368009;28;849;-71
2023/11/29 22:34:59;;;;;;;;;;;;;;;16.81;44.21;98348.22;10366742;28;1300;-71
2023/11/29 22:39:55;;;;;;;;;;;;;;;16.83;44.12;98341.09;10367015;28;1965;-71
2023/11/29 22:44:52;;;;;;;;;;;;;;;16.82;44.39;98349.91;10366935;28;767;-71
2023/11/29 22:49:47;;;;;;;;;;;;;;;16.81;44.36;98354.31;10366189;28;845;-71
2023/11/29 22:54:43;;;;;;;;;;;;;;;16.82;44.18;98345.50;10365954;28;980;-71
2023/11/29 22:59:39;;;;;;;;;;;;;;;16.81;44.26;98350.84;10367684;28;1952;-71
2023/11/29 23:04:35;;;;;;;;;;;;;;;16.81;44.18;98350.84;10366990;28;882;-71
2023/11/29 23:09:31;;;;;;;;;;;;;;;16.85;44.27;98350.56;10366279;28;855;-71
2023/11/29 23:14:27;;;;;;;;;;;;;;;16.82;44.21;98361.31;10366834;28;865;-71
2023/11/29 23:19:23;;;;;;;;;;;;;;;16.82;44.24;98358.66;10366184;28;930;-71
2023/11/29 23:24:19;;;;;;;;;;;;;;;16.82;44.23;98353.41;10366081;28;1889;-71
2023/11/29 23:29:15;;;;;;;;;;;;;;;16.80;44.41;98357.06;10366005;28;770;-71
2023/11/29 23:34:11;;;;;;;;;;;;;;;16.81;44.25;98353.50;10372572;28;1081;-71
2023/11/29 23:39:07;;;;;;;;;;;;;;;16.82;43.91;98345.50;10373986;28;1325;-71
2023/11/29 23:44:03;;;;;;;;;;;;;;;16.77;44.30;98342.31;10373757;28;1910;-71
2023/11/29 23:49:02;;;;;;;;;;;;;;;16.78;44.25;98351.03;10373968;28;854;-71
2023/11/29 23:53:58;;;;;;;;;;;;;;;16.76;44.30;98342.38;10373281;28;837;-71
2023/11/29 23:58:54;;;;;;;;;;;;;;;16.74;44.38;98336.34;10374069;28;790;-71
